createdAt,value
2023-08-15T00:01:33.943Z,26.76
2023-08-15T00:04:01.897Z,26.74
2023-08-15T00:06:29.877Z,26.70
2023-08-15T00:08:57.628Z,26.68
2023-08-15T00:11:25.643Z,26.66
2023-08-15T00:13:56.710Z,26.61
2023-08-15T00:16:26.212Z,26.59
2023-08-15T00:18:53.963Z,26.56
2023-08-15T00:21:21.843Z,26.54
2023-08-15T00:23:49.545Z,26.50
2023-08-15T00:26:17.449Z,26.45
2023-08-15T00:28:45.206Z,26.42
2023-08-15T00:31:13.076Z,26.40
2023-08-15T00:33:43.319Z,26.38
2023-08-15T00:36:11.148Z,26.37
2023-08-15T00:38:38.866Z,26.34
2023-08-15T00:41:06.780Z,26.32
2023-08-15T00:43:34.764Z,26.30
2023-08-15T00:46:02.535Z,26.27
2023-08-15T00:48:31.241Z,26.26
2023-08-15T00:51:00.767Z,26.22
2023-08-15T00:53:29.568Z,26.18
2023-08-15T00:55:57.737Z,26.18
2023-08-15T00:58:26.319Z,26.16
2023-08-15T01:00:54.061Z,26.12
2023-08-15T01:03:22.055Z,26.12
2023-08-15T01:05:49.883Z,26.12
2023-08-15T01:08:19.165Z,26.12
2023-08-15T01:10:47.029Z,26.13
2023-08-15T01:13:16.869Z,26.15
2023-08-15T01:15:47.577Z,26.14
2023-08-15T01:18:17.406Z,26.10
2023-08-15T01:20:45.315Z,26.10
2023-08-15T01:23:13.153Z,26.10
2023-08-15T01:25:43.073Z,26.09
2023-08-15T01:28:13.306Z,25.99
2023-08-15T01:30:42.510Z,26.06
2023-08-15T01:33:14.117Z,25.95
2023-08-15T01:35:43.771Z,26.03
2023-08-15T01:38:14.903Z,26.02
2023-08-15T01:40:44.282Z,26.01
2023-08-15T01:43:12.687Z,26.00
2023-08-15T01:45:40.580Z,26.01
2023-08-15T01:48:08.664Z,25.99
2023-08-15T01:50:36.449Z,25.98
2023-08-15T01:53:04.439Z,25.95
2023-08-15T01:55:32.248Z,25.94
2023-08-15T01:58:01.543Z,25.92
2023-08-15T02:00:29.267Z,25.92
2023-08-15T02:02:57.173Z,25.91
2023-08-15T02:05:25.105Z,25.96
2023-08-15T02:07:53.083Z,25.98
2023-08-15T02:10:20.767Z,26.01
2023-08-15T02:12:48.610Z,26.04
2023-08-15T02:15:17.708Z,26.05
2023-08-15T02:17:45.688Z,26.05
2023-08-15T02:20:14.118Z,26.04
2023-08-15T02:22:42.089Z,26.05
2023-08-15T02:25:10.264Z,26.06
2023-08-15T02:27:38.075Z,26.07
2023-08-15T02:30:06.818Z,26.06
2023-08-15T02:32:36.262Z,26.11
2023-08-15T02:35:04.338Z,26.15
2023-08-15T02:37:32.201Z,26.18
2023-08-15T02:40:00.053Z,26.24
2023-08-15T02:42:27.862Z,26.26
2023-08-15T02:44:56.146Z,26.31
2023-08-15T02:47:24.109Z,26.37
2023-08-15T02:49:53.192Z,26.39
2023-08-15T02:52:21.041Z,26.40
2023-08-15T02:54:48.794Z,26.37
2023-08-15T02:57:16.623Z,26.38
2023-08-15T02:59:44.351Z,26.38
2023-08-15T03:02:12.238Z,26.38
2023-08-15T03:04:40.062Z,26.39
2023-08-15T03:07:09.279Z,26.38
2023-08-15T03:09:36.993Z,26.31
2023-08-15T03:12:05.137Z,26.42
2023-08-15T03:14:33.043Z,26.43
2023-08-15T03:17:00.891Z,26.45
2023-08-15T03:19:28.655Z,26.46
2023-08-15T03:21:56.476Z,26.45
2023-08-15T03:24:26.212Z,26.42
2023-08-15T03:26:54.034Z,26.41
2023-08-15T03:29:21.721Z,26.44
2023-08-15T03:31:49.580Z,26.44
2023-08-15T03:34:17.340Z,26.45
2023-08-15T03:36:46.821Z,26.45
2023-08-15T03:39:14.595Z,26.41
2023-08-15T03:41:43.802Z,26.42
2023-08-15T03:44:11.622Z,26.40
2023-08-15T03:46:40.307Z,26.38
2023-08-15T03:49:08.195Z,26.36
2023-08-15T03:51:46.499Z,26.38
2023-08-15T03:54:15.233Z,26.39
2023-08-15T03:56:44.459Z,26.37
2023-08-15T03:59:12.151Z,26.34
2023-08-15T04:01:40.072Z,26.26
2023-08-15T04:04:08.287Z,26.19
2023-08-15T04:06:36.154Z,26.03
2023-08-15T04:09:04.008Z,25.85
2023-08-15T04:11:31.789Z,25.71
2023-08-15T04:14:00.923Z,25.59
2023-08-15T04:16:28.768Z,25.47
2023-08-15T04:18:57.723Z,25.35
2023-08-15T04:21:25.654Z,25.24
2023-08-15T04:23:53.591Z,25.02
2023-08-15T04:26:21.364Z,25.09
2023-08-15T04:28:49.062Z,25.07
2023-08-15T04:31:18.252Z,25.06
2023-08-15T04:33:45.966Z,25.09
2023-08-15T04:36:14.054Z,25.05
2023-08-15T04:38:41.765Z,25.09
2023-08-15T04:41:09.555Z,25.13
2023-08-15T04:43:37.350Z,25.15
2023-08-15T04:46:05.203Z,25.17
2023-08-15T04:48:34.462Z,25.19
2023-08-15T04:51:02.235Z,25.19
2023-08-15T04:53:30.058Z,25.19
2023-08-15T04:55:57.775Z,25.21
2023-08-15T04:58:25.570Z,25.24
2023-08-15T05:00:53.272Z,25.26
2023-08-15T05:03:21.324Z,25.26
2023-08-15T05:05:50.761Z,25.30
2023-08-15T05:08:18.543Z,25.33
2023-08-15T05:10:46.264Z,25.35
2023-08-15T05:13:14.135Z,25.38
2023-08-15T05:15:41.856Z,25.40
2023-08-15T05:18:12.227Z,25.35
2023-08-15T05:20:40.041Z,25.35
2023-08-15T05:23:09.599Z,25.35
2023-08-15T05:25:37.550Z,25.37
2023-08-15T05:28:06.134Z,25.41
2023-08-15T05:30:33.969Z,25.51
2023-08-15T05:33:02.041Z,25.52
2023-08-15T05:35:30.116Z,25.59
2023-08-15T05:37:58.026Z,25.67
2023-08-15T05:40:27.714Z,25.73
2023-08-15T05:42:55.588Z,25.77
2023-08-15T05:45:23.570Z,25.79
2023-08-15T05:47:52.301Z,25.82
2023-08-15T05:50:20.279Z,25.84
2023-08-15T05:52:48.093Z,25.86
2023-08-15T05:55:16.002Z,25.90
2023-08-15T05:57:45.300Z,25.90
2023-08-15T06:00:14.499Z,26.00
2023-08-15T06:02:42.325Z,26.11
2023-08-15T06:05:10.573Z,26.24
2023-08-15T06:07:38.331Z,26.41
2023-08-15T06:10:07.285Z,26.68
2023-08-15T06:12:35.322Z,26.88
2023-08-15T06:15:04.861Z,27.03
2023-08-15T06:17:32.595Z,27.12
2023-08-15T06:20:00.707Z,27.14
2023-08-15T06:22:28.459Z,27.42
2023-08-15T06:24:56.559Z,27.55
2023-08-15T06:27:24.273Z,27.69
2023-08-15T06:29:53.268Z,27.91
2023-08-15T06:32:28.840Z,28.16
2023-08-15T06:34:56.735Z,28.31
2023-08-15T06:37:24.481Z,28.38
2023-08-15T06:39:56.343Z,28.24
2023-08-15T06:42:25.328Z,28.02
2023-08-15T06:45:06.398Z,27.94
2023-08-15T06:47:35.624Z,27.72
2023-08-15T06:50:03.723Z,27.55
2023-08-15T06:52:32.333Z,27.47
2023-08-15T06:55:00.643Z,27.42
2023-08-15T06:57:28.771Z,27.38
2023-08-15T06:59:56.576Z,27.36
2023-08-15T07:02:24.312Z,27.34
2023-08-15T07:04:53.821Z,27.27
2023-08-15T07:07:21.837Z,27.38
2023-08-15T07:09:50.202Z,27.30
2023-08-15T07:12:19.973Z,27.61
2023-08-15T07:14:52.071Z,27.69
2023-08-15T07:17:19.839Z,27.96
2023-08-15T07:19:48.090Z,28.21
2023-08-15T07:22:17.229Z,28.34
2023-08-15T07:24:45.371Z,28.48
2023-08-15T07:27:13.210Z,28.63
2023-08-15T07:29:41.021Z,28.71
2023-08-15T07:32:12.180Z,28.67
2023-08-15T07:34:41.892Z,28.67
2023-08-15T07:37:09.740Z,28.72
2023-08-15T07:39:39.027Z,28.65
2023-08-15T07:42:06.942Z,28.57
2023-08-15T07:44:34.733Z,28.42
2023-08-15T07:47:02.984Z,28.19
2023-08-15T07:49:32.461Z,28.05
2023-08-15T07:52:00.243Z,27.93
2023-08-15T07:54:28.495Z,27.82
2023-08-15T07:56:57.786Z,27.82
2023-08-15T07:59:25.496Z,27.82
2023-08-15T08:01:53.338Z,27.80
2023-08-15T08:04:21.200Z,27.84
2023-08-15T08:06:50.788Z,27.81
2023-08-15T08:09:18.629Z,27.74
2023-08-15T08:11:46.513Z,27.65
2023-08-15T08:14:15.639Z,27.65
2023-08-15T08:16:43.629Z,27.66
2023-08-15T08:19:11.512Z,27.63
2023-08-15T08:21:39.307Z,27.64
2023-08-15T08:24:07.558Z,27.64
2023-08-15T08:26:35.318Z,27.54
2023-08-15T08:29:03.108Z,27.45
2023-08-15T08:31:32.241Z,27.36
2023-08-15T08:34:00.108Z,27.37
2023-08-15T08:36:27.844Z,27.39
2023-08-15T08:38:55.677Z,27.42
2023-08-15T08:41:23.997Z,27.44
2023-08-15T08:46:19.568Z,27.53
2023-08-15T08:48:48.731Z,27.64
2023-08-15T08:51:16.459Z,27.85
2023-08-15T08:53:44.367Z,28.06
2023-08-15T08:56:12.100Z,28.25
2023-08-15T08:58:39.906Z,28.43
2023-08-15T09:01:07.917Z,28.61
2023-08-15T09:03:37.153Z,28.79
2023-08-15T09:06:06.482Z,29.01
2023-08-15T09:08:34.398Z,29.22
2023-08-15T09:11:02.181Z,29.41
2023-08-15T09:13:30.042Z,29.28
2023-08-15T09:15:59.997Z,29.55
2023-08-15T09:18:28.418Z,29.69
2023-08-15T09:20:56.188Z,30.04
2023-08-15T09:23:25.324Z,30.46
2023-08-15T09:25:56.884Z,31.10
2023-08-15T09:28:25.191Z,31.43
2023-08-15T09:30:53.871Z,32.04
2023-08-15T09:33:21.892Z,33.33
2023-08-15T09:35:58.651Z,34.71
2023-08-15T09:38:28.624Z,35.50
2023-08-15T09:40:57.209Z,35.58
2023-08-15T09:43:41.665Z,35.48
2023-08-15T09:46:10.037Z,35.00
2023-08-15T09:48:37.977Z,34.89
2023-08-15T09:51:05.934Z,34.45
2023-08-15T09:53:35.235Z,34.05
2023-08-15T09:56:03.085Z,33.65
2023-08-15T09:58:30.821Z,33.28
2023-08-15T10:00:58.660Z,33.01
2023-08-15T10:03:27.033Z,32.76
2023-08-15T10:05:56.137Z,32.65
2023-08-15T10:08:24.394Z,32.65
2023-08-15T10:10:54.220Z,32.68
2023-08-15T10:13:24.708Z,33.06
2023-08-15T10:15:52.895Z,33.47
2023-08-15T10:18:22.687Z,33.89
2023-08-15T10:20:51.590Z,35.02
2023-08-15T10:23:25.766Z,35.85
2023-08-15T10:25:55.051Z,36.67
2023-08-15T10:28:22.887Z,37.93
2023-08-15T10:30:52.785Z,38.80
2023-08-15T10:33:21.508Z,39.63
2023-08-15T10:35:51.499Z,39.62
2023-08-15T10:38:19.800Z,39.07
2023-08-15T10:40:47.981Z,38.58
2023-08-15T10:43:17.836Z,38.38
2023-08-15T10:45:46.729Z,38.71
2023-08-15T10:48:14.665Z,39.23
2023-08-15T10:50:47.197Z,39.08
2023-08-15T10:53:16.671Z,38.98
2023-08-15T10:55:45.582Z,38.91
2023-08-15T10:58:13.515Z,38.72
2023-08-15T11:00:42.920Z,38.60
2023-08-15T11:03:10.798Z,38.51
2023-08-15T11:05:38.698Z,38.46
2023-08-15T11:08:14.626Z,38.40
2023-08-15T11:10:46.166Z,38.24
2023-08-15T11:13:14.118Z,38.22
2023-08-15T11:15:43.383Z,38.01
2023-08-15T11:18:11.153Z,37.93
2023-08-15T11:20:39.252Z,37.77
2023-08-15T11:23:07.330Z,37.56
2023-08-15T11:25:35.410Z,37.37
2023-08-15T11:28:03.212Z,37.20
2023-08-15T11:30:30.958Z,37.24
2023-08-15T11:33:00.738Z,37.59
2023-08-15T11:35:28.480Z,38.00
2023-08-15T11:37:56.271Z,38.26
2023-08-15T11:40:24.106Z,38.52
2023-08-15T11:42:51.908Z,38.56
2023-08-15T11:45:20.242Z,38.65
2023-08-15T11:47:58.341Z,38.47
2023-08-15T11:50:42.219Z,38.36
2023-08-15T11:53:13.434Z,38.35
2023-08-15T11:55:41.273Z,38.40
2023-08-15T11:58:25.843Z,38.44
2023-08-15T12:00:55.206Z,38.38
2023-08-15T12:03:22.989Z,38.36
2023-08-15T12:05:54.671Z,38.15
2023-08-15T12:08:23.108Z,37.95
2023-08-15T12:10:50.952Z,37.74
2023-08-15T12:13:18.840Z,37.29
2023-08-15T12:15:46.557Z,37.02
2023-08-15T12:18:14.445Z,36.91
2023-08-15T12:20:42.201Z,36.86
2023-08-15T12:23:18.783Z,36.79
2023-08-15T12:25:51.164Z,36.69
2023-08-15T12:28:19.653Z,36.53
2023-08-15T12:30:47.458Z,36.35
2023-08-15T12:33:20.863Z,36.17
2023-08-15T12:35:59.097Z,36.07
2023-08-15T12:38:28.172Z,35.98
2023-08-15T12:40:56.010Z,35.93
2023-08-15T12:43:23.705Z,35.82
2023-08-15T12:45:51.666Z,35.79
2023-08-15T12:48:19.513Z,35.82
2023-08-15T12:50:47.284Z,35.83
2023-08-15T12:53:14.994Z,35.68
2023-08-15T12:55:44.742Z,35.80
2023-08-15T12:58:12.572Z,35.78
2023-08-15T13:00:42.540Z,35.69
2023-08-15T13:03:10.740Z,35.60
2023-08-15T13:05:38.608Z,35.48
2023-08-15T13:08:06.695Z,35.43
2023-08-15T13:10:34.494Z,35.43
2023-08-15T13:13:04.270Z,35.39
2023-08-15T13:15:31.976Z,35.34
2023-08-15T13:17:59.824Z,35.32
2023-08-15T13:20:27.523Z,35.34
2023-08-15T13:22:55.805Z,35.36
2023-08-15T13:25:23.660Z,35.30
2023-08-15T13:27:52.482Z,35.23
2023-08-15T13:30:21.747Z,35.17
2023-08-15T13:32:49.788Z,35.08
2023-08-15T13:35:31.526Z,35.08
2023-08-15T13:37:59.311Z,35.01
2023-08-15T13:40:27.034Z,34.94
2023-08-15T13:42:56.134Z,34.90
2023-08-15T13:45:25.327Z,34.85
2023-08-15T13:47:53.066Z,34.79
2023-08-15T13:50:21.056Z,34.67
2023-08-15T13:53:00.559Z,34.51
2023-08-15T13:55:31.463Z,34.17
2023-08-15T13:57:59.195Z,34.25
2023-08-15T14:00:31.393Z,34.12
2023-08-15T14:02:59.305Z,34.01
2023-08-15T14:05:27.379Z,33.83
2023-08-15T14:07:55.285Z,33.74
2023-08-15T14:10:23.953Z,33.69
2023-08-15T14:12:51.765Z,33.53
2023-08-15T14:15:19.649Z,33.50
2023-08-15T14:17:48.804Z,33.42
2023-08-15T14:20:16.679Z,33.35
2023-08-15T14:22:44.424Z,33.32
2023-08-15T14:25:12.293Z,33.23
2023-08-15T14:27:40.058Z,33.09
2023-08-15T14:30:08.974Z,32.97
2023-08-15T14:32:36.806Z,32.93
2023-08-15T14:35:06.572Z,32.91
2023-08-15T14:37:34.381Z,32.94
2023-08-15T14:40:02.194Z,32.94
2023-08-15T14:42:29.937Z,32.91
2023-08-15T14:44:57.877Z,32.98
2023-08-15T14:47:30.254Z,32.32
2023-08-15T14:49:58.209Z,31.66
2023-08-15T14:52:27.810Z,31.80
2023-08-15T14:54:55.749Z,32.90
2023-08-15T14:57:23.693Z,32.80
2023-08-15T14:59:52.283Z,33.30
2023-08-15T15:02:21.574Z,32.14
2023-08-15T15:04:52.422Z,33.09
2023-08-15T15:07:20.323Z,32.13
2023-08-15T15:09:49.728Z,32.87
2023-08-15T15:12:17.579Z,31.16
2023-08-15T15:14:56.539Z,32.38
2023-08-15T15:17:24.548Z,31.14
2023-08-15T15:19:52.793Z,32.00
2023-08-15T15:22:21.341Z,30.96
2023-08-15T15:24:50.710Z,32.40
2023-08-15T15:27:18.622Z,32.30
2023-08-15T15:29:46.408Z,31.47
2023-08-15T15:32:14.535Z,31.49
2023-08-15T15:34:48.271Z,31.61
2023-08-15T15:37:20.597Z,31.36
2023-08-15T15:39:50.439Z,30.29
2023-08-15T15:42:18.409Z,32.47
2023-08-15T15:44:46.391Z,31.95
2023-08-15T15:47:16.960Z,32.54
2023-08-15T15:49:44.994Z,31.47
2023-08-15T15:52:16.197Z,31.86
2023-08-15T15:54:44.137Z,31.81
2023-08-15T15:57:13.688Z,31.11
2023-08-15T15:59:41.561Z,31.93
2023-08-15T16:02:10.086Z,31.98
2023-08-15T16:04:38.916Z,32.19
2023-08-15T16:07:08.499Z,32.69
2023-08-15T16:09:38.220Z,32.80
2023-08-15T16:12:06.426Z,32.80
2023-08-15T16:14:35.560Z,32.74
2023-08-15T16:17:04.526Z,32.67
2023-08-15T16:19:32.378Z,32.51
2023-08-15T16:22:00.139Z,32.40
2023-08-15T16:24:27.846Z,32.31
2023-08-15T16:26:55.543Z,32.18
2023-08-15T16:29:23.276Z,31.77
2023-08-15T16:31:52.563Z,31.95
2023-08-15T16:34:20.305Z,31.88
2023-08-15T16:36:48.497Z,31.80
2023-08-15T16:39:16.330Z,31.73
2023-08-15T16:41:44.280Z,31.66
2023-08-15T16:44:12.017Z,31.59
2023-08-15T16:46:39.759Z,31.56
2023-08-15T16:49:09.244Z,31.45
2023-08-15T16:51:39.608Z,30.85
2023-08-15T16:54:08.417Z,31.24
2023-08-15T16:56:36.251Z,31.13
2023-08-15T16:59:04.074Z,31.20
2023-08-15T17:01:31.839Z,31.13
2023-08-15T17:03:59.761Z,31.07
2023-08-15T17:06:28.947Z,30.99
2023-08-15T17:08:56.728Z,30.98
2023-08-15T17:11:24.567Z,30.93
2023-08-15T17:13:52.246Z,30.84
2023-08-15T17:16:19.984Z,30.81
2023-08-15T17:18:47.753Z,30.72
2023-08-15T17:21:15.593Z,30.63
2023-08-15T17:23:45.181Z,30.56
2023-08-15T17:26:12.986Z,30.51
2023-08-15T17:28:40.846Z,30.47
2023-08-15T17:31:08.665Z,30.41
2023-08-15T17:33:36.389Z,30.40
2023-08-15T17:36:04.335Z,30.32
2023-08-15T17:38:32.062Z,30.26
2023-08-15T17:41:01.254Z,30.18
2023-08-15T17:43:29.014Z,30.13
2023-08-15T17:45:56.802Z,30.02
2023-08-15T17:48:24.558Z,29.99
2023-08-15T17:50:52.366Z,29.92
2023-08-15T17:53:22.749Z,29.85
2023-08-15T17:55:50.754Z,29.79
2023-08-15T17:58:19.912Z,29.69
2023-08-15T18:00:48.816Z,29.61
2023-08-15T18:03:16.635Z,29.49
2023-08-15T18:05:44.765Z,29.41
2023-08-15T18:08:12.944Z,29.33
2023-08-15T18:10:40.704Z,29.26
2023-08-15T18:13:10.392Z,29.11
2023-08-15T18:15:39.552Z,29.13
2023-08-15T18:18:07.401Z,29.08
2023-08-15T18:20:35.250Z,29.03
2023-08-15T18:23:03.228Z,28.97
2023-08-15T18:25:31.758Z,28.93
2023-08-15T18:28:01.867Z,28.83
2023-08-15T18:30:29.671Z,28.83
2023-08-15T18:32:58.913Z,28.65
2023-08-15T18:35:26.725Z,28.72
2023-08-15T18:37:54.770Z,28.63
2023-08-15T18:40:23.557Z,28.55
2023-08-15T18:42:51.369Z,28.49
2023-08-15T18:45:19.362Z,28.44
2023-08-15T18:47:48.380Z,28.22
2023-08-15T18:50:19.392Z,28.36
2023-08-15T18:52:47.082Z,28.32
2023-08-15T18:55:14.928Z,28.22
2023-08-15T18:57:43.529Z,28.17
2023-08-15T19:00:14.242Z,28.13
2023-08-15T19:02:44.093Z,28.11
2023-08-15T19:05:12.024Z,28.10
2023-08-15T19:07:41.093Z,28.11
2023-08-15T19:10:09.868Z,28.09
2023-08-15T19:12:37.757Z,28.03
2023-08-15T19:15:06.455Z,28.06
2023-08-15T19:17:34.933Z,28.07
2023-08-15T19:20:02.676Z,28.06
2023-08-15T19:22:30.436Z,28.07
2023-08-15T19:24:59.649Z,28.03
2023-08-15T19:27:27.419Z,28.02
2023-08-15T19:29:55.360Z,27.96
2023-08-15T19:32:23.506Z,27.89
2023-08-15T19:34:51.452Z,27.80
2023-08-15T19:37:30.982Z,27.68
2023-08-15T19:40:04.984Z,27.59
2023-08-15T19:42:32.751Z,27.53
2023-08-15T19:45:00.460Z,27.38
2023-08-15T19:47:28.521Z,27.41
2023-08-15T19:49:56.337Z,27.34
2023-08-15T19:52:24.256Z,27.27
2023-08-15T19:54:52.283Z,27.23
2023-08-15T19:57:21.378Z,27.16
2023-08-15T19:59:49.286Z,27.14
2023-08-15T20:02:17.331Z,27.12
2023-08-15T20:04:45.248Z,27.09
2023-08-15T20:07:13.059Z,27.08
2023-08-15T20:09:44.605Z,27.06
2023-08-15T20:12:16.996Z,27.02
2023-08-15T20:14:46.082Z,26.97
2023-08-15T20:17:14.244Z,26.93
2023-08-15T20:19:41.940Z,26.89
2023-08-15T20:22:09.769Z,26.85
2023-08-15T20:24:39.161Z,26.81
2023-08-15T20:27:07.062Z,26.80
2023-08-15T20:29:38.266Z,26.75
2023-08-15T20:32:07.946Z,26.75
2023-08-15T20:34:35.681Z,26.72
2023-08-15T20:37:03.591Z,26.69
2023-08-15T20:39:31.265Z,26.69
2023-08-15T20:42:00.237Z,26.67
2023-08-15T20:44:28.423Z,26.65
2023-08-15T20:46:56.833Z,26.60
2023-08-15T20:49:26.221Z,26.55
2023-08-15T20:51:55.151Z,26.56
2023-08-15T20:54:22.948Z,26.59
2023-08-15T20:56:50.701Z,26.63
2023-08-15T20:59:18.473Z,26.67
2023-08-15T21:01:46.379Z,26.37
2023-08-15T21:04:14.510Z,26.69
2023-08-15T21:06:44.033Z,26.70
2023-08-15T21:09:12.171Z,26.71
2023-08-15T21:11:40.063Z,26.73
2023-08-15T21:14:08.023Z,26.71
2023-08-15T21:16:35.993Z,26.73
2023-08-15T21:19:03.799Z,26.63
2023-08-15T21:21:31.687Z,26.71
2023-08-15T21:24:00.726Z,26.69
2023-08-15T21:26:28.731Z,26.72
2023-08-15T21:28:56.454Z,26.72
2023-08-15T21:31:24.298Z,26.72
2023-08-15T21:33:52.049Z,26.71
2023-08-15T21:36:19.923Z,26.70
2023-08-15T21:38:47.658Z,26.70
2023-08-15T21:41:18.081Z,26.71
2023-08-15T21:43:46.954Z,26.73
2023-08-15T21:46:14.917Z,26.73
2023-08-15T21:48:42.823Z,26.78
2023-08-15T21:51:10.772Z,26.78
2023-08-15T21:53:38.605Z,26.74
2023-08-15T21:56:06.420Z,26.79
2023-08-15T21:58:35.631Z,26.77
2023-08-15T22:01:04.238Z,26.69
2023-08-15T22:03:32.181Z,26.58
2023-08-15T22:05:59.950Z,26.55
2023-08-15T22:08:28.994Z,26.52
2023-08-15T22:10:56.831Z,26.47
2023-08-15T22:13:24.705Z,26.42
2023-08-15T22:15:53.799Z,26.33
2023-08-15T22:18:22.213Z,26.34
2023-08-15T22:20:50.295Z,26.31
2023-08-15T22:23:18.138Z,26.30
2023-08-15T22:25:46.857Z,26.28
2023-08-15T22:28:14.811Z,26.32
2023-08-15T22:30:42.668Z,26.26
2023-08-15T22:33:12.936Z,26.23
2023-08-15T22:35:41.378Z,26.25
2023-08-15T22:38:09.463Z,26.16
2023-08-15T22:40:37.292Z,26.17
2023-08-15T22:43:06.181Z,26.14
2023-08-15T22:45:34.055Z,26.09
2023-08-15T22:48:02.950Z,26.01
2023-08-15T22:50:32.109Z,25.89
2023-08-15T22:53:00.841Z,25.72
2023-08-15T22:55:29.782Z,25.56
2023-08-15T22:57:57.554Z,25.50
2023-08-15T23:00:25.349Z,25.45
2023-08-15T23:02:53.481Z,25.37
2023-08-15T23:05:21.245Z,25.33
2023-08-15T23:07:50.393Z,25.27
2023-08-15T23:10:18.344Z,25.27
2023-08-15T23:12:46.474Z,25.25
2023-08-15T23:15:14.635Z,25.20
2023-08-15T23:17:42.502Z,25.18
2023-08-15T23:20:11.615Z,25.04
2023-08-15T23:22:39.446Z,25.01
2023-08-15T23:25:11.313Z,25.08
2023-08-15T23:27:39.278Z,25.12
2023-08-15T23:30:09.299Z,25.15
2023-08-15T23:32:37.188Z,25.17
2023-08-15T23:35:05.527Z,25.19
2023-08-15T23:37:33.975Z,25.22
2023-08-15T23:40:01.715Z,25.21
2023-08-15T23:42:32.011Z,25.14
2023-08-15T23:44:59.845Z,25.12
2023-08-15T23:47:27.643Z,25.13
2023-08-15T23:49:55.576Z,25.16
2023-08-15T23:52:23.298Z,25.20
2023-08-15T23:54:51.370Z,25.23
2023-08-15T23:57:19.128Z,25.23
2023-08-15T23:59:49.212Z,25.27
